Lord Of The Glens — ZQOE9 — position and weather

sailwx.info

Track history (hours):
 
Tides and Currents Weather Stations Pressure Air Temp Water Temp Dewpoint Dewpoint Depression Visibility Wind Speed Wind Dir Waves Ship Positions

Lord Of The Glens

Operator: V Ships UK Ltd

Last reported at 2017-Aug-20 13:30 UTC. Time now 2017-Aug-20 13:39 UTC.
Position N 57°17' W 005°43'.

Length 45 m; draft 2.8 m.

Type: Passenger vessel. MMSI: 235000295.

Date/timePositionNaut miles runAvg speedWind from/ knotsBaromVisibWave heightAir tempDewpointWater temp
2017-Aug-20 13:30N 57°17' W 005°43'2 3.6
2017-Aug-20 13:00N 57°16' W 005°40'5 9.1
2017-Aug-20 12:29N 57°11' W 005°41'42 1.0
2017-Aug-18 16:48N 56°30' W 005°42'2 0.2
2017-Aug-18 06:40N 56°28' W 005°40'2 9.0
2017-Aug-18 06:30N 56°27' W 005°37'5 9.3
2017-Aug-18 06:00N 56°26' W 005°29'1 1.5
2017-Aug-18 05:26N 56°25' W 005°29'0 0.0
2017-Aug-18 05:01N 56°25' W 005°29'0 0.0
2017-Aug-18 04:31N 56°25' W 005°29'0 0.0
2017-Aug-18 03:54N 56°25' W 005°29'0 0.0
2017-Aug-18 03:21N 56°25' W 005°29'0 0.0
2017-Aug-18 03:00N 56°25' W 005°29'0 0.0
2017-Aug-18 02:31N 56°25' W 005°29'0 0.0
2017-Aug-18 02:00N 56°25' W 005°29'0 0.0
2017-Aug-18 01:29N 56°25' W 005°29'0 0.0
2017-Aug-18 01:00N 56°25' W 005°29'0 0.0
2017-Aug-18 00:26N 56°25' W 005°29'0 0.0
2017-Aug-17 23:58N 56°25' W 005°29'0 0.0
2017-Aug-17 23:14N 56°25' W 005°29'0 0.0
2017-Aug-17 21:01N 56°25' W 005°29'0 0.1
2017-Aug-17 20:56N 56°25' W 005°29'0 0.0
2017-Aug-17 20:27N 56°25' W 005°29'0 0.0
2017-Aug-17 19:57N 56°25' W 005°29'0 0.0
2017-Aug-17 19:22N 56°25' W 005°29'0 0.0
2017-Aug-17 19:00N 56°25' W 005°29'0 0.0
2017-Aug-17 18:30N 56°25' W 005°29'0 0.0
2017-Aug-17 17:46N 56°25' W 005°29'0 0.0
2017-Aug-17 17:28N 56°25' W 005°29'0 0.0
2017-Aug-17 16:58N 56°25' W 005°29'0 0.0
2017-Aug-17 16:30N 56°25' W 005°29'0 0.0
2017-Aug-17 15:58N 56°25' W 005°29'0 0.0
2017-Aug-17 15:26N 56°25' W 005°29'0 0.0
2017-Aug-17 14:57N 56°25' W 005°29'0 0.0
2017-Aug-17 14:29N 56°25' W 005°29'0 0.0
2017-Aug-17 14:00N 56°25' W 005°29'0 0.0
2017-Aug-17 13:30N 56°25' W 005°29'0 0.0
2017-Aug-17 11:25N 56°25' W 005°29'4 8.5
2017-Aug-17 11:00N 56°28' W 005°29'5 9.5
2017-Aug-17 10:30N 56°33' W 005°26'5 8.8
2017-Aug-17 09:56N 56°37' W 005°22'410.1
2017-Aug-17 09:30N 56°41' W 005°18'5 9.9
2017-Aug-17 09:00N 56°45' W 005°13'  
2017-Aug-11 16:24N 56°48' W 005°09'3 8.1
2017-Aug-11 16:00N 56°45' W 005°13'5 9.7
2017-Aug-11 15:30N 56°41' W 005°17'5 9.2
2017-Aug-11 15:00N 56°37' W 005°22'9 9.2
2017-Aug-11 14:01N 56°29' W 005°29'4 1.4
2017-Aug-11 11:04N 56°25' W 005°29'0 0.0
2017-Aug-11 11:00N 56°25' W 005°29'0 0.0
2017-Aug-11 10:27N 56°25' W 005°29'0 0.0
2017-Aug-11 10:00N 56°25' W 005°29'0 0.0
2017-Aug-11 09:30N 56°25' W 005°29'0 0.0
2017-Aug-11 09:00N 56°25' W 005°29'0 0.0
2017-Aug-11 08:30N 56°25' W 005°29'0 0.0
2017-Aug-11 08:00N 56°25' W 005°29'0 0.0
2017-Aug-11 07:30N 56°25' W 005°29'0 0.0
2017-Aug-11 07:00N 56°25' W 005°29'0 0.0
2017-Aug-11 06:30N 56°25' W 005°29'0 0.0
2017-Aug-11 06:00N 56°25' W 005°29'0 0.0
2017-Aug-11 05:30N 56°25' W 005°29'0 0.0
2017-Aug-11 05:00N 56°25' W 005°29'0 0.0
2017-Aug-11 04:30N 56°25' W 005°29'0 0.0
2017-Aug-11 04:00N 56°25' W 005°29'0 0.0
2017-Aug-11 03:30N 56°25' W 005°29'0 0.0
2017-Aug-11 03:00N 56°25' W 005°29'0 0.0
2017-Aug-11 02:30N 56°25' W 005°29'0 0.0
2017-Aug-11 02:00N 56°25' W 005°29'0 0.0
2017-Aug-11 01:30N 56°25' W 005°29'0 0.0
2017-Aug-11 01:00N 56°25' W 005°29'0 0.0
2017-Aug-11 00:30N 56°25' W 005°29'0 0.0
2017-Aug-11 00:00N 56°25' W 005°29'0 0.0
2017-Aug-10 23:30N 56°25' W 005°29'0 0.0
2017-Aug-10 23:00N 56°25' W 005°29'0 0.0
2017-Aug-10 22:30N 56°25' W 005°29'0 0.0
2017-Aug-10 22:00N 56°25' W 005°29'0 0.0
2017-Aug-10 21:30N 56°25' W 005°29'0 0.0
2017-Aug-10 21:00N 56°25' W 005°29'0 0.0
2017-Aug-10 20:30N 56°25' W 005°29'0 0.0
2017-Aug-10 20:00N 56°25' W 005°29'0 0.0
2017-Aug-10 19:30N 56°25' W 005°29'0 0.0
2017-Aug-10 19:00N 56°25' W 005°29'0 0.0
2017-Aug-10 18:30N 56°25' W 005°29'0 0.0
2017-Aug-10 18:00N 56°25' W 005°29'0 0.1
2017-Aug-10 17:28N 56°25' W 005°29'4 9.0
2017-Aug-10 17:00N 56°27' W 005°35'4 8.3
2017-Aug-10 16:31N 56°28' W 005°42'0 0.1
2017-Aug-10 15:48N 56°28' W 005°42'0 0.0
2017-Aug-10 15:30N 56°28' W 005°42'0 0.0
2017-Aug-10 15:00N 56°28' W 005°42'  
Track history (hours):
 
Tides and Currents Weather Stations Pressure Air Temp Water Temp Dewpoint Dewpoint Depression Visibility Wind Speed Wind Dir Waves Ship Positions

Lord Of The Glens

Operator: V Ships UK Ltd

Last reported at 2017-Aug-20 13:30 UTC. Time now 2017-Aug-20 13:39 UTC.
Position N 57°17' W 005°43'.

Length 45 m; draft 2.8 m.

Type: Passenger vessel. MMSI: 235000295.

Date/timePositionNaut miles runAvg speedWind from/ knotsBaromVisibWave heightAir tempDewpointWater temp
2017-Aug-20 13:30N 57°17' W 005°43'2 3.6
2017-Aug-20 13:00N 57°16' W 005°40'5 9.1
2017-Aug-20 12:29N 57°11' W 005°41'42 1.0
2017-Aug-18 16:48N 56°30' W 005°42'2 0.2
2017-Aug-18 06:40N 56°28' W 005°40'2 9.0
2017-Aug-18 06:30N 56°27' W 005°37'5 9.3
2017-Aug-18 06:00N 56°26' W 005°29'1 1.5
2017-Aug-18 05:26N 56°25' W 005°29'0 0.0
2017-Aug-18 05:01N 56°25' W 005°29'0 0.0
2017-Aug-18 04:31N 56°25' W 005°29'0 0.0
2017-Aug-18 03:54N 56°25' W 005°29'0 0.0
2017-Aug-18 03:21N 56°25' W 005°29'0 0.0
2017-Aug-18 03:00N 56°25' W 005°29'0 0.0
2017-Aug-18 02:31N 56°25' W 005°29'0 0.0
2017-Aug-18 02:00N 56°25' W 005°29'0 0.0
2017-Aug-18 01:29N 56°25' W 005°29'0 0.0
2017-Aug-18 01:00N 56°25' W 005°29'0 0.0
2017-Aug-18 00:26N 56°25' W 005°29'0 0.0
2017-Aug-17 23:58N 56°25' W 005°29'0 0.0
2017-Aug-17 23:14N 56°25' W 005°29'0 0.0
2017-Aug-17 21:01N 56°25' W 005°29'0 0.1
2017-Aug-17 20:56N 56°25' W 005°29'0 0.0
2017-Aug-17 20:27N 56°25' W 005°29'0 0.0
2017-Aug-17 19:57N 56°25' W 005°29'0 0.0
2017-Aug-17 19:22N 56°25' W 005°29'0 0.0
2017-Aug-17 19:00N 56°25' W 005°29'0 0.0
2017-Aug-17 18:30N 56°25' W 005°29'0 0.0
2017-Aug-17 17:46N 56°25' W 005°29'0 0.0
2017-Aug-17 17:28N 56°25' W 005°29'0 0.0
2017-Aug-17 16:58N 56°25' W 005°29'0 0.0
2017-Aug-17 16:30N 56°25' W 005°29'0 0.0
2017-Aug-17 15:58N 56°25' W 005°29'0 0.0
2017-Aug-17 15:26N 56°25' W 005°29'0 0.0
2017-Aug-17 14:57N 56°25' W 005°29'0 0.0
2017-Aug-17 14:29N 56°25' W 005°29'0 0.0
2017-Aug-17 14:00N 56°25' W 005°29'0 0.0
2017-Aug-17 13:30N 56°25' W 005°29'0 0.0
2017-Aug-17 11:25N 56°25' W 005°29'4 8.5
2017-Aug-17 11:00N 56°28' W 005°29'5 9.5
2017-Aug-17 10:30N 56°33' W 005°26'5 8.8
2017-Aug-17 09:56N 56°37' W 005°22'410.1
2017-Aug-17 09:30N 56°41' W 005°18'5 9.9
2017-Aug-17 09:00N 56°45' W 005°13'  
2017-Aug-11 16:24N 56°48' W 005°09'3 8.1
2017-Aug-11 16:00N 56°45' W 005°13'5 9.7
2017-Aug-11 15:30N 56°41' W 005°17'5 9.2
2017-Aug-11 15:00N 56°37' W 005°22'9 9.2
2017-Aug-11 14:01N 56°29' W 005°29'4 1.4
2017-Aug-11 11:04N 56°25' W 005°29'0 0.0
2017-Aug-11 11:00N 56°25' W 005°29'0 0.0
2017-Aug-11 10:27N 56°25' W 005°29'0 0.0
2017-Aug-11 10:00N 56°25' W 005°29'0 0.0
2017-Aug-11 09:30N 56°25' W 005°29'0 0.0
2017-Aug-11 09:00N 56°25' W 005°29'0 0.0
2017-Aug-11 08:30N 56°25' W 005°29'0 0.0
2017-Aug-11 08:00N 56°25' W 005°29'0 0.0
2017-Aug-11 07:30N 56°25' W 005°29'0 0.0
2017-Aug-11 07:00N 56°25' W 005°29'0 0.0
2017-Aug-11 06:30N 56°25' W 005°29'0 0.0
2017-Aug-11 06:00N 56°25' W 005°29'0 0.0
2017-Aug-11 05:30N 56°25' W 005°29'0 0.0
2017-Aug-11 05:00N 56°25' W 005°29'0 0.0
2017-Aug-11 04:30N 56°25' W 005°29'0 0.0
2017-Aug-11 04:00N 56°25' W 005°29'0 0.0
2017-Aug-11 03:30N 56°25' W 005°29'0 0.0
2017-Aug-11 03:00N 56°25' W 005°29'0 0.0
2017-Aug-11 02:30N 56°25' W 005°29'0 0.0
2017-Aug-11 02:00N 56°25' W 005°29'0 0.0
2017-Aug-11 01:30N 56°25' W 005°29'0 0.0
2017-Aug-11 01:00N 56°25' W 005°29'0 0.0
2017-Aug-11 00:30N 56°25' W 005°29'0 0.0
2017-Aug-11 00:00N 56°25' W 005°29'0 0.0
2017-Aug-10 23:30N 56°25' W 005°29'0 0.0
2017-Aug-10 23:00N 56°25' W 005°29'0 0.0
2017-Aug-10 22:30N 56°25' W 005°29'0 0.0
2017-Aug-10 22:00N 56°25' W 005°29'0 0.0
2017-Aug-10 21:30N 56°25' W 005°29'0 0.0
2017-Aug-10 21:00N 56°25' W 005°29'0 0.0
2017-Aug-10 20:30N 56°25' W 005°29'0 0.0
2017-Aug-10 20:00N 56°25' W 005°29'0 0.0
2017-Aug-10 19:30N 56°25' W 005°29'0 0.0
2017-Aug-10 19:00N 56°25' W 005°29'0 0.0
2017-Aug-10 18:30N 56°25' W 005°29'0 0.0
2017-Aug-10 18:00N 56°25' W 005°29'0 0.1
2017-Aug-10 17:28N 56°25' W 005°29'4 9.0
2017-Aug-10 17:00N 56°27' W 005°35'4 8.3
2017-Aug-10 16:31N 56°28' W 005°42'0 0.1
2017-Aug-10 15:48N 56°28' W 005°42'0 0.0
2017-Aug-10 15:30N 56°28' W 005°42'0 0.0
2017-Aug-10 15:00N 56°28' W 005°42'  

Dump ship's entire track history